Time;durP1;ratioP1;P1;durP2;ratioP2;P2;SDS_P1;SDS_P2;PMS_P1;PMS_P2;Temp;Humidity;BMP_temperature;BMP_pressure;BME280_temperature;BME280_humidity;BME280_pressure;Samples;Min_cycle;Max_cycle;Signal;HPM_P1;HPM_P2
2022/10/25 00:01:44;;;;;;;5.35;1.70;;;17.80;85.70;;;;;;5074096;28;20027;-71
2022/10/25 00:04:09;;;;;;;2.97;1.60;;;17.70;85.70;;;;;;5039974;28;20070;-71
2022/10/25 00:06:35;;;;;;;2.83;1.52;;;17.70;85.80;;;;;;5074267;28;20020;-71
2022/10/25 00:09:01;;;;;;;1.65;1.55;;;17.80;85.70;;;;;;5073686;28;20044;-71
2022/10/25 00:11:27;;;;;;;5.30;1.65;;;17.70;85.70;;;;;;5055978;28;20035;-71
2022/10/25 00:13:56;;;;;;;5.00;1.60;;;17.80;85.70;;;;;;5039698;28;20029;-71
2022/10/25 00:16:26;;;;;;;2.92;1.63;;;17.80;85.70;;;;;;5055240;28;20012;-72
2022/10/25 00:18:52;;;;;;;11.70;1.80;;;17.80;85.70;;;;;;5073339;28;20025;-71
2022/10/25 00:21:17;;;;;;;5.50;1.70;;;17.70;85.70;;;;;;5066361;28;20077;-71
2022/10/25 00:23:43;;;;;;;8.35;1.73;;;17.70;85.70;;;;;;5071428;28;20063;-71
2022/10/25 00:26:09;;;;;;;4.80;2.05;;;17.80;85.80;;;;;;5072396;28;20036;-71
2022/10/25 00:28:35;;;;;;;3.28;1.83;;;17.80;85.80;;;;;;5072261;28;20106;-71
2022/10/25 00:31:05;;;;;;;2.55;1.60;;;17.70;85.80;;;;;;5071913;28;20064;-71
2022/10/25 00:33:31;;;;;;;5.93;1.95;;;17.70;85.80;;;;;;5071981;28;20032;-71
2022/10/25 00:36:24;;;;;;;4.03;1.40;;;17.80;85.90;;;;;;5055702;28;20037;-71
2022/10/25 00:38:50;;;;;;;5.47;1.70;;;17.70;85.80;;;;;;5072368;28;20501;-71
2022/10/25 00:41:18;;;;;;;2.50;1.67;;;17.80;85.90;;;;;;5072410;28;20032;-71
2022/10/25 00:43:51;;;;;;;3.90;1.50;;;17.70;85.90;;;;;;5073402;28;20107;-71
2022/10/25 00:46:17;;;;;;;3.55;1.70;;;17.80;85.90;;;;;;5055619;28;20021;-71
2022/10/25 00:48:50;;;;;;;3.47;1.55;;;17.80;86.00;;;;;;5073414;28;20134;-71
2022/10/25 00:51:16;;;;;;;3.83;1.75;;;17.80;85.90;;;;;;5056402;28;20028;-71
2022/10/25 00:53:41;;;;;;;3.83;1.60;;;17.70;86.00;;;;;;5073302;28;20386;-71
2022/10/25 00:56:15;;;;;;;3.17;1.60;;;17.70;85.90;;;;;;5055522;28;20467;-71
2022/10/25 00:58:41;;;;;;;8.05;2.10;;;17.70;86.00;;;;;;5071573;28;20442;-71
2022/10/25 01:01:08;;;;;;;4.47;1.80;;;17.80;86.00;;;;;;5055516;28;20048;-71
2022/10/25 01:03:35;;;;;;;4.35;1.90;;;17.70;86.00;;;;;;5038866;28;20477;-71
2022/10/25 01:06:01;;;;;;;4.15;1.50;;;17.80;86.00;;;;;;5055619;28;20056;-71
2022/10/25 01:08:27;;;;;;;2.80;1.58;;;17.70;86.00;;;;;;5038506;28;20028;-71
2022/10/25 01:10:53;;;;;;;4.50;2.00;;;17.80;86.00;;;;;;5055440;28;20044;-71
2022/10/25 01:13:18;;;;;;;3.67;2.05;;;17.70;86.00;;;;;;5072956;28;20083;-71
2022/10/25 01:15:56;;;;;;;2.60;1.63;;;17.70;86.00;;;;;;5055264;28;20032;-71
2022/10/25 01:18:31;;;;;;;2.70;1.40;;;17.80;86.10;;;;;;5055474;28;20047;-71
2022/10/25 01:21:24;;;;;;;4.43;1.50;;;17.80;87.10;;;;;;5070771;28;20076;-71
2022/10/25 01:24:09;;;;;;;3.40;1.33;;;17.80;86.20;;;;;;5051801;28;20391;-71
2022/10/25 01:26:47;;;;;;;2.60;1.73;;;17.80;86.10;;;;;;5035009;28;20037;-71
2022/10/25 01:29:28;;;;;;;3.38;1.50;;;17.70;86.10;;;;;;5036183;28;20494;-71
2022/10/25 01:32:02;;;;;;;4.20;1.57;;;17.70;86.10;;;;;;5035906;28;20074;-71
2022/10/25 01:34:30;;;;;;;2.03;1.45;;;17.70;86.10;;;;;;5035489;28;20025;-71
2022/10/25 01:37:02;;;;;;;2.55;1.60;;;17.80;86.30;;;;;;5035470;28;20035;-72
2022/10/25 01:39:36;;;;;;;2.25;1.30;;;17.80;86.20;;;;;;5052784;28;20091;-72
2022/10/25 01:42:16;;;;;;;3.90;1.98;;;17.70;87.10;;;;;;5035329;28;20025;-72
2022/10/25 01:44:57;;;;;;;2.55;1.55;;;17.80;86.20;;;;;;5052836;28;20021;-71
2022/10/25 01:47:32;;;;;;;4.93;1.73;;;17.80;86.20;;;;;;5051530;28;20471;-71
2022/10/25 01:50:00;;;;;;;2.88;1.52;;;17.80;86.20;;;;;;5051778;28;20364;-71
2022/10/25 01:52:26;;;;;;;4.47;1.40;;;17.70;86.10;;;;;;5051487;28;20037;-71
2022/10/25 01:54:52;;;;;;;3.47;1.45;;;17.70;86.20;;;;;;5051511;28;20067;-71
2022/10/25 01:57:17;;;;;;;2.72;1.35;;;17.70;86.10;;;;;;5052247;28;20429;-71
2022/10/25 02:00:01;;;;;;;1.52;1.13;;;17.70;86.20;;;;;;5052757;28;20383;-71
2022/10/25 02:02:37;;;;;;;3.10;1.40;;;17.70;86.20;;;;;;5052566;28;20387;-71
2022/10/25 02:05:09;;;;;;;4.50;1.42;;;17.80;86.30;;;;;;5051451;28;20482;-71
2022/10/25 02:07:37;;;;;;;2.30;1.40;;;17.80;86.20;;;;;;5051356;28;20029;-71
2022/10/25 02:10:15;;;;;;;1.33;1.23;;;17.70;86.20;;;;;;5051435;28;20052;-71
2022/10/25 02:13:00;;;;;;;2.90;1.50;;;17.70;86.20;;;;;;5051062;28;20047;-71
2022/10/25 02:15:29;;;;;;;1.80;1.45;;;17.80;86.20;;;;;;5034664;28;20035;-71
2022/10/25 02:17:58;;;;;;;2.05;1.48;;;17.80;86.30;;;;;;5052147;28;20033;-71
2022/10/25 02:20:24;;;;;;;1.98;1.48;;;17.80;86.20;;;;;;5041086;28;20506;-71
2022/10/25 02:22:50;;;;;;;3.95;1.95;;;17.80;86.20;;;;;;5066476;28;20028;-71
2022/10/25 02:25:16;;;;;;;3.70;1.52;;;17.70;86.20;;;;;;5091236;28;20016;-71
2022/10/25 02:27:41;;;;;;;1.50;1.23;;;17.70;86.20;;;;;;5091357;28;20390;-71
2022/10/25 02:30:07;;;;;;;2.15;1.48;;;17.80;86.30;;;;;;5091413;28;20054;-71
2022/10/25 02:32:33;;;;;;;2.45;1.60;;;17.70;86.20;;;;;;5094604;28;20059;-71
2022/10/25 02:34:58;;;;;;;5.70;1.67;;;17.70;86.20;;;;;;5094974;28;20024;-71
2022/10/25 02:37:24;;;;;;;2.45;1.52;;;17.80;86.30;;;;;;5094880;28;20381;-71
2022/10/25 02:39:50;;;;;;;4.32;1.60;;;17.80;86.20;;;;;;5096110;28;20016;-71
2022/10/25 02:42:15;;;;;;;2.55;1.27;;;17.70;86.20;;;;;;5094745;28;20035;-71
2022/10/25 02:44:41;;;;;;;6.40;1.27;;;17.70;86.10;;;;;;5095893;28;20028;-71
2022/10/25 02:47:07;;;;;;;2.20;1.20;;;17.80;86.20;;;;;;5094976;28;20039;-71
2022/10/25 02:49:32;;;;;;;2.17;1.38;;;17.70;86.20;;;;;;5094475;28;20024;-71
2022/10/25 02:51:58;;;;;;;2.42;1.27;;;17.70;86.20;;;;;;5095976;28;20077;-71
2022/10/25 02:54:23;;;;;;;3.03;1.27;;;17.80;86.20;;;;;;5095638;28;20051;-71
2022/10/25 02:56:51;;;;;;;3.70;1.63;;;17.80;86.20;;;;;;5095410;28;20457;-71
2022/10/25 02:59:17;;;;;;;3.47;1.23;;;17.70;86.20;;;;;;5094734;28;20108;-71
2022/10/25 03:01:42;;;;;;;3.03;1.30;;;17.70;86.20;;;;;;5094537;28;20103;-71
2022/10/25 03:04:08;;;;;;;2.40;1.48;;;17.70;86.20;;;;;;5095609;28;20032;-71
2022/10/25 03:06:33;;;;;;;2.95;1.30;;;17.70;86.20;;;;;;5095768;28;20061;-71
2022/10/25 03:08:59;;;;;;;4.63;1.85;;;17.80;86.30;;;;;;5095165;28;20500;-71
2022/10/25 03:11:25;;;;;;;3.53;1.40;;;17.70;86.20;;;;;;5095504;28;20107;-71
2022/10/25 03:13:50;;;;;;;3.33;1.30;;;17.80;86.30;;;;;;5095350;28;20482;-71
2022/10/25 03:16:16;;;;;;;4.32;1.60;;;17.80;86.20;;;;;;5093948;28;20485;-71
2022/10/25 03:18:41;;;;;;;3.83;1.42;;;17.70;86.20;;;;;;5095293;28;20413;-71
2022/10/25 03:21:07;;;;;;;2.10;1.30;;;17.80;86.20;;;;;;5097483;28;20489;-71
2022/10/25 03:23:33;;;;;;;2.78;1.40;;;17.70;86.20;;;;;;5077026;28;20020;-71
2022/10/25 03:25:59;;;;;;;3.63;1.50;;;17.70;86.20;;;;;;5059250;28;20031;-71
2022/10/25 03:28:26;;;;;;;2.72;1.45;;;17.70;86.20;;;;;;5076997;28;20039;-71
2022/10/25 03:30:52;;;;;;;3.67;2.20;;;17.80;86.30;;;;;;5077161;28;20028;-71
2022/10/25 03:33:18;;;;;;;3.45;1.23;;;17.80;86.20;;;;;;5056789;28;20031;-71
2022/10/25 03:35:43;;;;;;;2.45;1.30;;;17.80;86.30;;;;;;5056905;28;20032;-71
2022/10/25 03:38:09;;;;;;;1.40;1.10;;;17.70;86.20;;;;;;5056699;28;20100;-71
2022/10/25 03:40:35;;;;;;;2.50;1.20;;;17.80;86.30;;;;;;5057011;28;20543;-71
2022/10/25 03:43:00;;;;;;;2.25;1.30;;;17.70;86.20;;;;;;5039342;28;20420;-71
2022/10/25 03:45:26;;;;;;;2.88;1.30;;;17.70;86.20;;;;;;5093297;28;20028;-71
2022/10/25 03:47:52;;;;;;;2.20;1.65;;;17.80;86.30;;;;;;5060122;28;20032;-71
2022/10/25 03:50:17;;;;;;;2.67;1.08;;;17.70;86.20;;;;;;5076798;28;20028;-71
2022/10/25 03:52:43;;;;;;;2.75;1.35;;;17.70;86.20;;;;;;5094601;28;20040;-71
2022/10/25 03:55:09;;;;;;;1.85;1.05;;;17.80;86.30;;;;;;5094765;28;20024;-71
2022/10/25 03:57:34;;;;;;;3.72;1.33;;;17.70;86.20;;;;;;5059896;28;20027;-71
2022/10/25 04:00:00;;;;;;;2.15;1.00;;;17.70;86.20;;;;;;5076527;28;20504;-71
2022/10/25 04:02:26;;;;;;;2.50;1.48;;;17.70;86.40;;;;;;5076645;28;20027;-71
2022/10/25 04:04:52;;;;;;;2.47;1.42;;;17.70;86.30;;;;;;5076471;28;20466;-71
2022/10/25 04:07:17;;;;;;;2.08;1.17;;;17.70;86.40;;;;;;5076269;28;20036;-71
2022/10/25 04:09:43;;;;;;;1.15;1.02;;;17.70;86.30;;;;;;5076221;28;20068;-71
2022/10/25 04:12:09;;;;;;;2.83;1.42;;;17.80;86.40;;;;;;5076466;28;20028;-71
2022/10/25 04:14:34;;;;;;;1.40;1.00;;;17.70;86.40;;;;;;5076341;28;20043;-71
2022/10/25 04:17:00;;;;;;;2.15;1.10;;;17.80;86.50;;;;;;5076144;28;20040;-70
2022/10/25 04:19:26;;;;;;;2.05;1.15;;;17.80;86.40;;;;;;5075862;28;20036;-71
2022/10/25 04:21:51;;;;;;;2.13;1.23;;;17.80;86.50;;;;;;5093585;28;20097;-71
2022/10/25 04:24:17;;;;;;;1.45;1.05;;;17.80;86.50;;;;;;5076102;28;20382;-71
2022/10/25 04:26:42;;;;;;;2.90;1.17;;;17.80;86.50;;;;;;5093991;28;20032;-71
2022/10/25 04:29:09;;;;;;;2.33;1.10;;;17.70;86.40;;;;;;5059165;28;20027;-71
2022/10/25 04:31:34;;;;;;;2.15;1.10;;;17.70;86.40;;;;;;5075841;28;20367;-71
2022/10/25 04:34:00;;;;;;;2.13;1.25;;;17.80;86.50;;;;;;5093896;28;20076;-71
2022/10/25 04:36:27;;;;;;;6.15;1.48;;;17.80;86.60;;;;;;5058815;28;20078;-71
2022/10/25 04:38:53;;;;;;;1.80;1.05;;;17.80;86.50;;;;;;5075607;28;20020;-71
2022/10/25 04:41:19;;;;;;;2.92;1.30;;;17.80;86.50;;;;;;5075697;28;20031;-71
2022/10/25 04:43:44;;;;;;;2.88;1.48;;;17.80;86.60;;;;;;5075483;28;20024;-71
2022/10/25 04:46:10;;;;;;;2.83;1.20;;;17.70;86.50;;;;;;5075665;28;20031;-71
2022/10/25 04:48:37;;;;;;;6.22;1.30;;;17.80;86.60;;;;;;5075578;28;20024;-71
2022/10/25 04:51:02;;;;;;;3.30;1.38;;;17.70;86.60;;;;;;5075421;28;20056;-71
2022/10/25 04:53:28;;;;;;;2.20;1.25;;;17.80;86.70;;;;;;5075377;28;20377;-71
2022/10/25 04:55:58;;;;;;;5.13;1.40;;;17.70;86.70;;;;;;5075326;28;20429;-71
2022/10/25 04:58:24;;;;;;;3.47;1.42;;;17.80;86.70;;;;;;5059362;28;20028;-71
2022/10/25 05:00:51;;;;;;;1.23;1.10;;;17.80;86.70;;;;;;5058630;28;20028;-71
2022/10/25 05:03:16;;;;;;;1.48;1.10;;;17.70;86.70;;;;;;5059021;28;20493;-71
2022/10/25 05:05:42;;;;;;;3.50;1.20;;;17.80;86.70;;;;;;5091573;28;20024;-71
2022/10/25 05:08:07;;;;;;;1.85;0.90;;;17.70;86.70;;;;;;5092542;28;20085;-71
2022/10/25 05:10:33;;;;;;;4.53;1.08;;;17.80;87.70;;;;;;5092678;28;20053;-71
2022/10/25 05:12:59;;;;;;;6.28;1.42;;;17.80;86.70;;;;;;5058012;28;20034;-71
2022/10/25 05:15:24;;;;;;;5.15;1.17;;;17.80;86.70;;;;;;5074686;28;20039;-71
2022/10/25 05:17:50;;;;;;;4.32;1.30;;;17.80;86.70;;;;;;5074619;28;20481;-71
2022/10/25 05:20:15;;;;;;;3.00;1.05;;;17.70;86.70;;;;;;5092191;28;20070;-71
2022/10/25 05:22:41;;;;;;;3.58;1.20;;;17.70;86.70;;;;;;5092341;28;20029;-71
2022/10/25 05:25:07;;;;;;;3.42;1.23;;;17.70;86.70;;;;;;5074556;28;20028;-71
2022/10/25 05:27:37;;;;;;;5.68;1.52;;;17.70;86.70;;;;;;5092761;28;20054;-71
2022/10/25 05:30:03;;;;;;;3.28;1.30;;;17.70;86.80;;;;;;5074557;28;20465;-71
2022/10/25 05:32:29;;;;;;;2.85;1.10;;;17.70;86.80;;;;;;5074807;28;20024;-71
2022/10/25 05:34:54;;;;;;;2.40;1.10;;;17.70;86.80;;;;;;5074176;28;20076;-71
2022/10/25 05:37:20;;;;;;;4.75;1.13;;;17.70;86.80;;;;;;5092509;28;20032;-71
2022/10/25 05:39:46;;;;;;;2.45;1.55;;;17.70;86.80;;;;;;5074607;28;20020;-71
2022/10/25 05:42:11;;;;;;;2.83;1.05;;;17.80;86.80;;;;;;5092415;28;20020;-71
2022/10/25 05:44:37;;;;;;;2.17;1.20;;;17.80;86.90;;;;;;5092856;28;20024;-71
2022/10/25 05:47:02;;;;;;;3.25;1.13;;;17.70;86.80;;;;;;5074531;28;20024;-72
2022/10/25 05:49:28;;;;;;;3.47;1.30;;;17.70;86.80;;;;;;5074178;28;20024;-71
2022/10/25 05:51:54;;;;;;;3.47;1.40;;;17.70;86.80;;;;;;5092369;28;20105;-71
2022/10/25 05:54:19;;;;;;;3.28;1.00;;;17.80;86.90;;;;;;5074080;28;20027;-71
2022/10/25 05:56:45;;;;;;;2.25;0.82;;;17.70;86.80;;;;;;5074445;28;20492;-71
2022/10/25 05:59:12;;;;;;;1.50;1.02;;;17.70;86.80;;;;;;5092291;28;20077;-71
2022/10/25 06:01:44;;;;;;;7.28;1.35;;;17.70;86.90;;;;;;5074283;28;20024;-72
2022/10/25 06:04:10;;;;;;;3.20;1.00;;;17.80;86.90;;;;;;5055181;28;20036;-72
2022/10/25 06:06:36;;;;;;;2.53;1.58;;;17.80;86.90;;;;;;5094515;28;20493;-71
2022/10/25 06:09:02;;;;;;;1.92;1.08;;;17.80;86.90;;;;;;5096341;28;20028;-72
2022/10/25 06:11:28;;;;;;;2.20;1.20;;;17.80;86.90;;;;;;5061798;28;20036;-71
2022/10/25 06:13:54;;;;;;;1.88;0.90;;;17.70;86.90;;;;;;5061733;28;20024;-71
2022/10/25 06:16:19;;;;;;;5.43;1.10;;;17.80;85.30;;;;;;5078020;28;20032;-71
2022/10/25 06:18:45;;;;;;;3.15;1.00;;;17.70;84.00;;;;;;5077985;28;20070;-71
2022/10/25 06:21:13;;;;;;;2.35;1.08;;;17.70;84.00;;;;;;5061403;28;20119;-71
2022/10/25 06:23:40;;;;;;;2.35;0.95;;;17.70;84.10;;;;;;5078351;28;20027;-71
2022/10/25 06:26:10;;;;;;;2.88;1.10;;;17.60;84.20;;;;;;5078158;28;20036;-71
2022/10/25 06:28:36;;;;;;;3.25;0.82;;;17.60;84.50;;;;;;5094861;28;20050;-71
2022/10/25 06:31:12;;;;;;;2.78;1.00;;;17.70;84.40;;;;;;5042301;28;20486;-71
2022/10/25 06:33:37;;;;;;;2.30;0.80;;;17.60;84.30;;;;;;5074040;28;20027;-71
2022/10/25 06:36:04;;;;;;;3.28;1.10;;;17.70;84.20;;;;;;5074242;28;20370;-71
2022/10/25 06:38:30;;;;;;;1.60;0.75;;;17.60;84.20;;;;;;5076967;28;20068;-71
2022/10/25 06:40:59;;;;;;;2.38;1.00;;;17.70;84.30;;;;;;5059586;28;20405;-71
2022/10/25 06:43:24;;;;;;;2.83;0.98;;;17.60;84.20;;;;;;5076240;28;20508;-71
2022/10/25 06:45:50;;;;;;;2.50;0.93;;;17.60;84.20;;;;;;5075047;28;20027;-71
2022/10/25 06:48:16;;;;;;;3.88;1.00;;;17.60;84.20;;;;;;5076048;28;20027;-71
2022/10/25 06:50:41;;;;;;;3.92;1.35;;;17.60;84.30;;;;;;5094244;28;20028;-71
2022/10/25 06:53:07;;;;;;;8.70;1.48;;;17.60;84.30;;;;;;5076875;28;20032;-71
2022/10/25 06:55:32;;;;;;;32.10;4.28;;;17.60;84.50;;;;;;5095338;28;20028;-71
2022/10/25 06:57:58;;;;;;;35.40;5.28;;;17.60;84.40;;;;;;5095138;28;20513;-71
2022/10/25 07:00:24;;;;;;;38.72;4.95;;;17.60;84.50;;;;;;5094977;28;20028;-71
2022/10/25 07:02:54;;;;;;;24.08;4.13;;;17.60;85.60;;;;;;5076968;28;20042;-71
2022/10/25 07:05:19;;;;;;;25.00;4.20;;;17.60;84.60;;;;;;5077221;28;20024;-71
2022/10/25 07:07:45;;;;;;;24.70;4.32;;;17.60;84.60;;;;;;5060471;28;20035;-71
2022/10/25 07:10:11;;;;;;;31.02;4.00;;;17.60;84.60;;;;;;5094765;28;20028;-71
2022/10/25 07:12:39;;;;;;;23.25;4.53;;;17.60;84.70;;;;;;5076943;28;20020;-71
2022/10/25 07:15:05;;;;;;;26.73;4.22;;;17.60;84.70;;;;;;5094720;28;20024;-71
2022/10/25 07:17:31;;;;;;;23.88;5.15;;;17.60;84.70;;;;;;5075410;28;20016;-71
2022/10/25 07:19:57;;;;;;;21.35;3.67;;;17.60;84.70;;;;;;5094517;28;20506;-71
2022/10/25 07:22:23;;;;;;;18.27;3.88;;;17.60;84.70;;;;;;5081240;28;20523;-71
2022/10/25 07:24:49;;;;;;;22.65;4.57;;;17.60;84.80;;;;;;5093560;28;20024;-71
2022/10/25 07:27:14;;;;;;;18.83;4.78;;;17.60;84.80;;;;;;5093624;28;20397;-71
2022/10/25 07:29:40;;;;;;;20.77;3.63;;;17.50;84.70;;;;;;5093126;28;20359;-71
2022/10/25 07:32:07;;;;;;;18.38;4.13;;;17.60;84.70;;;;;;5094394;28;20024;-71
2022/10/25 07:34:32;;;;;;;20.92;4.00;;;17.60;84.70;;;;;;5093530;28;20020;-71
2022/10/25 07:36:58;;;;;;;19.38;4.05;;;17.60;84.80;;;;;;5094293;28;20436;-71
2022/10/25 07:39:24;;;;;;;29.33;4.65;;;17.50;84.70;;;;;;5093298;28;20035;-71
2022/10/25 07:41:49;;;;;;;16.30;3.97;;;17.50;84.70;;;;;;5093308;28;20070;-71
2022/10/25 07:44:15;;;;;;;25.90;4.65;;;17.50;84.70;;;;;;5092921;28;20028;-71
2022/10/25 07:46:41;;;;;;;16.13;4.13;;;17.50;84.70;;;;;;5093256;28;20437;-71
2022/10/25 07:49:07;;;;;;;23.60;3.92;;;17.50;84.70;;;;;;5092947;28;20024;-71
2022/10/25 07:51:32;;;;;;;19.77;4.18;;;17.50;84.80;;;;;;5092832;28;20020;-71
2022/10/25 07:53:58;;;;;;;27.48;5.10;;;17.50;84.70;;;;;;5092908;28;20100;-71
2022/10/25 07:56:23;;;;;;;19.02;4.05;;;17.50;84.70;;;;;;5093916;28;20028;-71
2022/10/25 07:58:52;;;;;;;21.52;5.13;;;17.50;84.70;;;;;;5092698;28;20026;-71
2022/10/25 08:01:25;;;;;;;19.85;5.40;;;17.50;84.70;;;;;;5093825;28;20504;-71
2022/10/25 08:03:51;;;;;;;17.70;3.85;;;17.50;84.70;;;;;;5092850;28;20028;-71
2022/10/25 08:06:17;;;;;;;21.38;3.67;;;17.50;84.70;;;;;;5092653;28;20016;-71
2022/10/25 08:08:43;;;;;;;14.18;3.50;;;17.50;84.70;;;;;;5092632;28;20110;-71
2022/10/25 08:11:08;;;;;;;22.73;4.05;;;17.50;84.70;;;;;;5092830;28;20031;-71
2022/10/25 08:13:35;;;;;;;17.13;3.80;;;17.50;84.70;;;;;;5093497;28;20024;-71
2022/10/25 08:16:01;;;;;;;21.50;3.60;;;17.50;84.70;;;;;;5093551;28;20432;-71
2022/10/25 08:18:26;;;;;;;16.73;3.90;;;17.50;84.70;;;;;;5093698;28;20024;-71
2022/10/25 08:20:52;;;;;;;17.80;3.88;;;17.50;84.70;;;;;;5093276;28;20111;-71
2022/10/25 08:23:18;;;;;;;18.92;4.13;;;17.50;84.80;;;;;;5092151;28;20398;-71
2022/10/25 08:25:43;;;;;;;20.45;4.00;;;17.50;84.70;;;;;;5092519;28;20027;-71
2022/10/25 08:28:09;;;;;;;16.48;3.92;;;17.40;84.70;;;;;;5091890;28;20081;-71
2022/10/25 08:30:35;;;;;;;17.73;4.55;;;17.50;84.70;;;;;;5092057;28;20505;-71
2022/10/25 08:33:00;;;;;;;17.77;3.58;;;17.40;84.70;;;;;;5092196;28;20030;-71
2022/10/25 08:35:26;;;;;;;19.20;4.60;;;17.40;84.70;;;;;;5092268;28;20078;-71
2022/10/25 08:37:51;;;;;;;20.00;3.42;;;17.40;84.70;;;;;;5093472;28;20070;-71
2022/10/25 08:40:19;;;;;;;16.77;4.18;;;17.50;84.70;;;;;;5091990;28;20036;-71
2022/10/25 08:43:11;;;;;;;19.10;4.07;;;17.40;84.70;;;;;;5091916;28;20028;-71
2022/10/25 08:46:12;;;;;;;8.93;3.35;;;17.40;84.60;;;;;;5091913;28;20535;-71
2022/10/25 08:48:47;;;;;;;19.55;4.15;;;17.40;84.70;;;;;;5078293;28;20125;-71
2022/10/25 08:51:34;;;;;;;17.10;4.00;;;17.40;84.70;;;;;;5074970;28;20457;-71
2022/10/25 08:54:04;;;;;;;16.42;3.92;;;17.40;84.60;;;;;;5091867;28;20024;-71
2022/10/25 08:56:30;;;;;;;18.15;5.57;;;17.40;84.70;;;;;;5091636;28;20020;-71
2022/10/25 08:58:58;;;;;;;16.38;3.35;;;17.40;84.70;;;;;;5091856;28;20043;-71
2022/10/25 09:01:38;;;;;;;14.73;3.33;;;17.40;84.60;;;;;;5091691;28;20020;-71
2022/10/25 09:04:03;;;;;;;18.25;3.92;;;17.40;84.70;;;;;;5091797;28;20035;-71
2022/10/25 09:06:39;;;;;;;12.98;3.15;;;17.40;84.60;;;;;;5091493;28;20481;-71
2022/10/25 09:09:32;;;;;;;13.57;3.33;;;17.40;84.70;;;;;;5091660;28;20032;-71
2022/10/25 09:12:16;;;;;;;16.38;3.95;;;17.40;84.70;;;;;;5092496;28;20024;-71
2022/10/25 09:15:01;;;;;;;13.95;3.50;;;17.40;84.60;;;;;;5092743;28;20024;-71
2022/10/25 09:17:48;;;;;;;14.02;3.47;;;17.40;84.60;;;;;;5091419;28;20047;-71
2022/10/25 09:20:27;;;;;;;14.95;3.40;;;17.40;84.70;;;;;;5092101;28;20047;-71
2022/10/25 09:23:17;;;;;;;12.77;3.55;;;17.40;84.70;;;;;;5091252;28;20520;-71
2022/10/25 09:26:09;;;;;;;16.00;4.10;;;17.40;84.70;;;;;;5083450;28;20561;-71
2022/10/25 09:28:51;;;;;;;14.32;3.15;;;17.40;84.70;;;;;;5091312;28;20028;-71
2022/10/25 09:31:22;;;;;;;18.52;4.80;;;17.30;84.60;;;;;;5091354;28;20032;-71
2022/10/25 09:33:48;;;;;;;12.95;3.63;;;17.40;84.70;;;;;;5091456;28;20085;-71
2022/10/25 09:36:13;;;;;;;15.40;3.72;;;17.30;84.70;;;;;;5091127;28;20028;-71
2022/10/25 09:39:26;;;;;;;13.82;3.60;;;17.40;84.60;;;;;;5091327;28;20103;-71
2022/10/25 09:41:54;;;;;;;12.88;2.85;;;17.30;84.60;;;;;;5031722;28;20034;-71
2022/10/25 09:44:36;;;;;;;13.35;3.53;;;17.30;84.70;;;;;;5017544;28;20438;-71
2022/10/25 09:47:11;;;;;;;17.75;3.92;;;17.30;84.60;;;;;;5017848;28;20128;-71
2022/10/25 09:49:55;;;;;;;11.52;3.28;;;17.40;84.70;;;;;;5017858;28;20112;-71
2022/10/25 09:52:39;;;;;;;10.98;3.25;;;17.30;84.60;;;;;;5003014;28;20507;-71
2022/10/25 09:55:05;;;;;;;16.52;3.83;;;17.30;84.60;;;;;;4986716;28;20053;-71
2022/10/25 09:57:30;;;;;;;8.05;2.53;;;17.30;84.60;;;;;;5033947;28;20500;-71
2022/10/25 09:59:56;;;;;;;10.63;3.17;;;17.30;84.50;;;;;;5034106;28;20511;-71
2022/10/25 10:02:25;;;;;;;15.05;3.15;;;17.30;84.50;;;;;;5017419;28;20105;-71
2022/10/25 10:04:51;;;;;;;11.13;3.50;;;17.30;84.50;;;;;;5001849;28;20046;-71
2022/10/25 10:07:28;;;;;;;14.18;3.30;;;17.30;84.50;;;;;;5000893;28;20037;-71
2022/10/25 10:09:55;;;;;;;11.38;3.17;;;17.30;84.50;;;;;;5001783;28;20614;-71
2022/10/25 10:12:24;;;;;;;9.23;3.00;;;17.30;84.50;;;;;;5000854;28;20119;-71
2022/10/25 10:14:59;;;;;;;11.73;3.08;;;17.30;84.50;;;;;;5001355;28;20033;-71
2022/10/25 10:17:25;;;;;;;11.18;3.22;;;17.30;84.50;;;;;;5009566;28;20498;-71
2022/10/25 10:20:06;;;;;;;13.05;3.17;;;17.30;84.50;;;;;;5094697;28;20045;-71
2022/10/25 10:22:32;;;;;;;12.85;3.75;;;17.30;84.50;;;;;;5094646;28;20016;-71
2022/10/25 10:24:58;;;;;;;10.23;3.38;;;17.30;84.40;;;;;;5094453;28;20035;-71
2022/10/25 10:27:24;;;;;;;8.10;3.00;;;17.30;84.40;;;;;;5094476;28;20442;-71
2022/10/25 10:30:00;;;;;;;10.30;3.05;;;17.30;84.50;;;;;;5095879;28;20089;-71
2022/10/25 10:32:26;;;;;;;9.27;3.08;;;17.30;84.40;;;;;;5094450;28;20020;-71
2022/10/25 10:34:53;;;;;;;12.60;3.03;;;17.30;84.40;;;;;;5094483;28;20103;-71
2022/10/25 10:37:21;;;;;;;10.63;2.67;;;17.30;84.40;;;;;;5077306;28;20055;-71
2022/10/25 10:39:50;;;;;;;8.10;2.80;;;17.40;84.50;;;;;;5077320;28;20031;-71
2022/10/25 10:42:18;;;;;;;11.55;3.15;;;17.40;84.50;;;;;;5095500;28;20512;-71
2022/10/25 10:45:10;;;;;;;13.20;3.13;;;17.30;84.40;;;;;;5094266;28;20020;-71
2022/10/25 10:47:47;;;;;;;10.50;2.97;;;17.30;84.50;;;;;;5095383;28;20027;-71
2022/10/25 10:50:27;;;;;;;10.45;2.83;;;17.30;84.60;;;;;;5094338;28;20024;-71
2022/10/25 10:53:03;;;;;;;12.50;3.30;;;17.30;84.60;;;;;;5093809;28;20095;-71
2022/10/25 10:55:28;;;;;;;9.57;2.97;;;17.30;84.50;;;;;;5094081;28;20032;-71
2022/10/25 10:57:56;;;;;;;10.40;2.90;;;17.30;84.60;;;;;;5095338;28;20032;-71
2022/10/25 11:00:22;;;;;;;9.27;3.08;;;17.30;84.60;;;;;;5094052;28;20024;-71
2022/10/25 11:02:48;;;;;;;9.75;3.10;;;17.30;84.60;;;;;;5093981;28;20013;-71
2022/10/25 11:05:17;;;;;;;9.52;3.10;;;17.30;84.70;;;;;;5095146;28;20020;-71
2022/10/25 11:07:42;;;;;;;8.77;2.95;;;17.30;84.70;;;;;;5094864;28;20027;-71
2022/10/25 11:10:14;;;;;;;9.57;2.67;;;17.30;84.70;;;;;;5095097;28;20024;-71
2022/10/25 11:12:40;;;;;;;7.28;2.53;;;17.30;84.70;;;;;;5094894;28;20103;-71
2022/10/25 11:15:12;;;;;;;8.30;2.97;;;17.30;84.70;;;;;;5093730;28;20375;-71
2022/10/25 11:17:45;;;;;;;8.65;2.42;;;17.30;84.70;;;;;;5093550;28;20042;-71
2022/10/25 11:20:26;;;;;;;6.43;2.25;;;17.30;84.70;;;;;;5093348;28;20123;-71
2022/10/25 11:23:27;;;;;;;9.48;2.70;;;17.30;85.70;;;;;;5093216;28;20020;-71
2022/10/25 11:26:01;;;;;;;4.70;2.42;;;17.30;84.70;;;;;;5032462;28;20056;-72
2022/10/25 11:28:47;;;;;;;11.27;2.72;;;17.30;84.70;;;;;;4999996;28;20051;-71
2022/10/25 11:31:19;;;;;;;8.55;2.78;;;17.30;84.70;;;;;;5015939;28;20038;-71
2022/10/25 11:33:56;;;;;;;8.75;2.72;;;17.30;84.70;;;;;;5032394;28;20034;-72
2022/10/25 11:36:37;;;;;;;8.68;2.55;;;17.30;84.70;;;;;;5000490;28;20037;-71
2022/10/25 11:39:14;;;;;;;8.88;2.85;;;17.30;84.70;;;;;;5015812;28;20234;-71
2022/10/25 11:41:48;;;;;;;8.70;2.42;;;17.30;84.80;;;;;;5031888;28;20049;-71
2022/10/25 11:44:27;;;;;;;7.30;2.13;;;17.30;84.80;;;;;;4999545;28;20018;-71
2022/10/25 11:47:17;;;;;;;8.57;2.72;;;17.30;84.80;;;;;;5015537;28;20048;-71
2022/10/25 11:49:56;;;;;;;7.00;2.47;;;17.30;84.80;;;;;;5002076;28;20099;-72
2022/10/25 11:52:26;;;;;;;6.28;2.40;;;17.30;84.90;;;;;;5015103;28;20033;-71
2022/10/25 11:54:53;;;;;;;6.90;2.40;;;17.30;84.90;;;;;;5015347;28;20155;-71
2022/10/25 11:57:47;;;;;;;5.70;2.53;;;17.30;84.90;;;;;;5015106;28;20029;-71
2022/10/25 12:00:14;;;;;;;9.20;2.70;;;17.30;84.80;;;;;;5059808;28;20055;-71
2022/10/25 12:02:48;;;;;;;6.78;2.65;;;17.30;84.90;;;;;;5092689;28;20024;-71
2022/10/25 12:05:44;;;;;;;7.63;2.38;;;17.30;85.00;;;;;;5091828;28;20385;-71
2022/10/25 12:08:23;;;;;;;5.93;2.47;;;17.30;84.90;;;;;;5093957;28;20020;-71
2022/10/25 12:11:03;;;;;;;7.25;2.08;;;17.30;85.00;;;;;;5092621;28;20024;-71
2022/10/25 12:13:34;;;;;;;8.35;2.20;;;17.30;85.00;;;;;;5092657;28;20110;-71
2022/10/25 12:16:00;;;;;;;8.55;2.60;;;17.30;85.00;;;;;;5092659;28;20024;-71
2022/10/25 12:18:41;;;;;;;6.32;2.33;;;17.30;84.90;;;;;;5092239;28;20543;-71
2022/10/25 12:21:07;;;;;;;7.85;2.33;;;17.30;86.00;;;;;;5092131;28;20036;-71
2022/10/25 12:23:44;;;;;;;7.15;2.35;;;17.30;85.00;;;;;;5092115;28;20059;-71
2022/10/25 12:26:28;;;;;;;8.00;2.50;;;17.30;86.00;;;;;;5092237;28;20028;-71
2022/10/25 12:28:54;;;;;;;6.65;2.13;;;17.30;85.00;;;;;;5092210;28;20059;-71
2022/10/25 12:31:22;;;;;;;8.68;2.55;;;17.30;85.10;;;;;;5092356;28;20457;-71
2022/10/25 12:34:15;;;;;;;7.40;2.00;;;17.30;85.00;;;;;;5075213;28;20436;-71
2022/10/25 12:36:54;;;;;;;6.03;1.60;;;17.30;85.00;;;;;;5014360;28;20034;-71
2022/10/25 12:39:39;;;;;;;6.72;2.25;;;17.30;85.00;;;;;;4999429;28;20517;-71
2022/10/25 12:42:12;;;;;;;8.77;2.25;;;17.30;85.10;;;;;;4998361;28;20034;-71
2022/10/25 12:45:02;;;;;;;8.60;2.67;;;17.30;85.10;;;;;;5014554;28;20064;-71
2022/10/25 12:47:48;;;;;;;5.63;2.35;;;17.30;85.10;;;;;;5030889;28;20042;-71
2022/10/25 12:50:38;;;;;;;5.93;2.42;;;17.30;85.10;;;;;;5030725;28;20464;-71
2022/10/25 12:53:09;;;;;;;6.72;2.17;;;17.30;85.10;;;;;;5014935;28;20033;-71
2022/10/25 12:55:41;;;;;;;6.38;2.30;;;17.30;85.10;;;;;;5030816;28;20044;-71
2022/10/25 12:58:15;;;;;;;4.15;1.80;;;17.30;85.10;;;;;;5030588;28;20033;-72